sensor_id;sensor_type;location;lat;lon;timestamp;P1;durP1;ratioP1;P2;durP2;ratioP2
23288;SDS011;11813;50.834;4.280;2023-01-20T00:00:37;53.53;;;22.93;;
23288;SDS011;11813;50.834;4.280;2023-01-20T00:03:03;53.80;;;20.47;;
23288;SDS011;11813;50.834;4.280;2023-01-20T00:05:28;49.63;;;22.03;;
23288;SDS011;11813;50.834;4.280;2023-01-20T00:07:54;61.93;;;22.27;;
23288;SDS011;11813;50.834;4.280;2023-01-20T00:10:20;46.80;;;21.57;;
23288;SDS011;11813;50.834;4.280;2023-01-20T00:12:45;56.47;;;21.10;;
23288;SDS011;11813;50.834;4.280;2023-01-20T00:15:11;53.77;;;21.00;;
23288;SDS011;11813;50.834;4.280;2023-01-20T00:17:36;58.60;;;22.47;;
23288;SDS011;11813;50.834;4.280;2023-01-20T00:20:02;55.87;;;21.67;;
23288;SDS011;11813;50.834;4.280;2023-01-20T00:22:29;62.17;;;23.67;;
23288;SDS011;11813;50.834;4.280;2023-01-20T00:24:54;56.40;;;23.00;;
23288;SDS011;11813;50.834;4.280;2023-01-20T00:27:20;62.13;;;23.27;;
23288;SDS011;11813;50.834;4.280;2023-01-20T00:29:46;53.37;;;21.73;;
23288;SDS011;11813;50.834;4.280;2023-01-20T00:32:11;56.00;;;22.40;;
23288;SDS011;11813;50.834;4.280;2023-01-20T00:34:37;54.80;;;21.50;;
23288;SDS011;11813;50.834;4.280;2023-01-20T00:37:03;59.43;;;22.07;;
23288;SDS011;11813;50.834;4.280;2023-01-20T00:39:28;53.73;;;21.13;;
23288;SDS011;11813;50.834;4.280;2023-01-20T00:41:54;49.47;;;20.33;;
23288;SDS011;11813;50.834;4.280;2023-01-20T00:44:19;55.87;;;20.87;;
23288;SDS011;11813;50.834;4.280;2023-01-20T00:46:45;55.30;;;18.80;;
23288;SDS011;11813;50.834;4.280;2023-01-20T00:49:11;50.73;;;18.77;;
23288;SDS011;11813;50.834;4.280;2023-01-20T00:51:36;53.13;;;21.50;;
23288;SDS011;11813;50.834;4.280;2023-01-20T00:54:02;58.13;;;21.03;;
23288;SDS011;11813;50.834;4.280;2023-01-20T00:56:27;54.43;;;20.67;;
23288;SDS011;11813;50.834;4.280;2023-01-20T00:58:53;55.37;;;22.17;;
23288;SDS011;11813;50.834;4.280;2023-01-20T01:01:22;50.20;;;20.53;;
23288;SDS011;11813;50.834;4.280;2023-01-20T01:03:47;48.47;;;19.53;;
23288;SDS011;11813;50.834;4.280;2023-01-20T01:06:14;56.40;;;21.90;;
23288;SDS011;11813;50.834;4.280;2023-01-20T01:08:41;55.33;;;20.47;;
23288;SDS011;11813;50.834;4.280;2023-01-20T01:11:07;56.63;;;21.00;;
23288;SDS011;11813;50.834;4.280;2023-01-20T01:13:34;56.07;;;19.50;;
23288;SDS011;11813;50.834;4.280;2023-01-20T01:16:02;56.00;;;20.93;;
23288;SDS011;11813;50.834;4.280;2023-01-20T01:18:28;52.57;;;20.13;;
23288;SDS011;11813;50.834;4.280;2023-01-20T01:20:54;53.17;;;21.40;;
23288;SDS011;11813;50.834;4.280;2023-01-20T01:23:19;56.87;;;21.10;;
23288;SDS011;11813;50.834;4.280;2023-01-20T01:25:45;46.37;;;19.40;;
23288;SDS011;11813;50.834;4.280;2023-01-20T01:28:11;56.67;;;21.87;;
23288;SDS011;11813;50.834;4.280;2023-01-20T01:30:36;53.67;;;19.97;;
23288;SDS011;11813;50.834;4.280;2023-01-20T01:33:02;61.50;;;20.70;;
23288;SDS011;11813;50.834;4.280;2023-01-20T01:35:28;49.67;;;20.63;;
23288;SDS011;11813;50.834;4.280;2023-01-20T01:37:53;56.17;;;21.23;;
23288;SDS011;11813;50.834;4.280;2023-01-20T01:40:19;55.90;;;20.27;;
23288;SDS011;11813;50.834;4.280;2023-01-20T01:42:44;51.53;;;20.73;;
23288;SDS011;11813;50.834;4.280;2023-01-20T01:47:39;53.80;;;20.47;;
23288;SDS011;11813;50.834;4.280;2023-01-20T01:50:11;48.60;;;19.33;;
23288;SDS011;11813;50.834;4.280;2023-01-20T01:52:42;52.83;;;21.70;;
23288;SDS011;11813;50.834;4.280;2023-01-20T01:55:10;57.80;;;22.50;;
23288;SDS011;11813;50.834;4.280;2023-01-20T01:57:37;61.97;;;21.87;;
23288;SDS011;11813;50.834;4.280;2023-01-20T02:00:03;52.23;;;20.37;;
23288;SDS011;11813;50.834;4.280;2023-01-20T02:02:31;56.37;;;21.73;;
23288;SDS011;11813;50.834;4.280;2023-01-20T02:04:57;64.00;;;22.13;;
23288;SDS011;11813;50.834;4.280;2023-01-20T02:07:22;54.07;;;22.67;;
23288;SDS011;11813;50.834;4.280;2023-01-20T02:09:49;53.23;;;19.43;;
23288;SDS011;11813;50.834;4.280;2023-01-20T02:12:15;52.30;;;20.20;;
23288;SDS011;11813;50.834;4.280;2023-01-20T02:14:51;57.90;;;20.33;;
23288;SDS011;11813;50.834;4.280;2023-01-20T02:25:57;54.33;;;21.03;;
23288;SDS011;11813;50.834;4.280;2023-01-20T02:28:06;52.80;;;21.23;;
23288;SDS011;11813;50.834;4.280;2023-01-20T02:33:41;58.37;;;21.87;;
23288;SDS011;11813;50.834;4.280;2023-01-20T02:36:12;52.73;;;21.23;;
23288;SDS011;11813;50.834;4.280;2023-01-20T02:38:47;54.30;;;21.87;;
23288;SDS011;11813;50.834;4.280;2023-01-20T02:47:07;56.60;;;21.30;;
23288;SDS011;11813;50.834;4.280;2023-01-20T02:52:35;50.30;;;21.73;;
23288;SDS011;11813;50.834;4.280;2023-01-20T02:55:20;47.90;;;21.63;;
23288;SDS011;11813;50.834;4.280;2023-01-20T02:57:51;47.77;;;20.23;;
23288;SDS011;11813;50.834;4.280;2023-01-20T03:00:22;59.53;;;22.80;;
23288;SDS011;11813;50.834;4.280;2023-01-20T03:02:53;53.73;;;21.73;;
23288;SDS011;11813;50.834;4.280;2023-01-20T03:05:23;53.17;;;22.20;;
23288;SDS011;11813;50.834;4.280;2023-01-20T03:07:53;50.53;;;20.97;;
23288;SDS011;11813;50.834;4.280;2023-01-20T03:10:20;57.47;;;22.83;;
23288;SDS011;11813;50.834;4.280;2023-01-20T03:12:52;52.07;;;22.93;;
23288;SDS011;11813;50.834;4.280;2023-01-20T03:15:23;54.57;;;22.00;;
23288;SDS011;11813;50.834;4.280;2023-01-20T03:17:54;56.27;;;23.67;;
23288;SDS011;11813;50.834;4.280;2023-01-20T03:20:19;47.20;;;19.83;;
23288;SDS011;11813;50.834;4.280;2023-01-20T03:22:45;47.37;;;20.37;;
23288;SDS011;11813;50.834;4.280;2023-01-20T03:25:10;51.03;;;22.27;;
23288;SDS011;11813;50.834;4.280;2023-01-20T03:27:38;53.40;;;21.13;;
23288;SDS011;11813;50.834;4.280;2023-01-20T03:30:08;53.83;;;21.20;;
23288;SDS011;11813;50.834;4.280;2023-01-20T03:32:37;55.23;;;22.27;;
23288;SDS011;11813;50.834;4.280;2023-01-20T03:35:03;60.43;;;21.67;;
23288;SDS011;11813;50.834;4.280;2023-01-20T03:37:29;51.90;;;20.47;;
23288;SDS011;11813;50.834;4.280;2023-01-20T03:39:54;55.47;;;21.67;;
23288;SDS011;11813;50.834;4.280;2023-01-20T03:43:05;52.53;;;21.03;;
23288;SDS011;11813;50.834;4.280;2023-01-20T03:45:20;49.30;;;21.07;;
23288;SDS011;11813;50.834;4.280;2023-01-20T03:53:17;50.03;;;21.03;;
23288;SDS011;11813;50.834;4.280;2023-01-20T03:58:38;45.83;;;20.30;;
23288;SDS011;11813;50.834;4.280;2023-01-20T04:01:08;53.20;;;20.90;;
23288;SDS011;11813;50.834;4.280;2023-01-20T04:03:36;44.97;;;19.97;;
23288;SDS011;11813;50.834;4.280;2023-01-20T04:06:06;45.53;;;20.50;;
23288;SDS011;11813;50.834;4.280;2023-01-20T04:08:36;52.83;;;21.17;;
23288;SDS011;11813;50.834;4.280;2023-01-20T04:11:05;54.93;;;22.00;;
23288;SDS011;11813;50.834;4.280;2023-01-20T04:13:33;47.00;;;19.90;;
23288;SDS011;11813;50.834;4.280;2023-01-20T04:15:59;53.23;;;21.67;;
23288;SDS011;11813;50.834;4.280;2023-01-20T04:18:27;47.87;;;20.27;;
23288;SDS011;11813;50.834;4.280;2023-01-20T04:20:56;47.50;;;20.00;;
23288;SDS011;11813;50.834;4.280;2023-01-20T04:23:29;45.77;;;18.93;;
23288;SDS011;11813;50.834;4.280;2023-01-20T04:25:59;45.93;;;19.63;;
23288;SDS011;11813;50.834;4.280;2023-01-20T04:28:25;46.27;;;19.73;;
23288;SDS011;11813;50.834;4.280;2023-01-20T04:30:50;47.07;;;19.33;;
23288;SDS011;11813;50.834;4.280;2023-01-20T04:33:16;42.70;;;20.23;;
23288;SDS011;11813;50.834;4.280;2023-01-20T04:35:42;49.70;;;20.17;;
23288;SDS011;11813;50.834;4.280;2023-01-20T04:38:07;50.47;;;19.63;;
23288;SDS011;11813;50.834;4.280;2023-01-20T04:40:33;46.73;;;19.80;;
23288;SDS011;11813;50.834;4.280;2023-01-20T04:42:59;49.03;;;20.00;;
23288;SDS011;11813;50.834;4.280;2023-01-20T04:45:24;48.73;;;19.33;;
23288;SDS011;11813;50.834;4.280;2023-01-20T04:47:50;52.90;;;20.70;;
23288;SDS011;11813;50.834;4.280;2023-01-20T04:50:15;47.87;;;19.23;;
23288;SDS011;11813;50.834;4.280;2023-01-20T04:52:41;47.87;;;20.20;;
23288;SDS011;11813;50.834;4.280;2023-01-20T04:55:08;48.40;;;20.43;;
23288;SDS011;11813;50.834;4.280;2023-01-20T04:57:34;39.80;;;19.33;;
23288;SDS011;11813;50.834;4.280;2023-01-20T05:00:00;49.97;;;21.30;;
23288;SDS011;11813;50.834;4.280;2023-01-20T05:02:25;46.90;;;19.70;;
23288;SDS011;11813;50.834;4.280;2023-01-20T05:04:51;52.83;;;21.40;;
23288;SDS011;11813;50.834;4.280;2023-01-20T05:07:17;44.23;;;21.07;;
23288;SDS011;11813;50.834;4.280;2023-01-20T05:09:42;57.13;;;21.63;;
23288;SDS011;11813;50.834;4.280;2023-01-20T05:12:08;48.03;;;21.23;;
23288;SDS011;11813;50.834;4.280;2023-01-20T05:14:33;49.37;;;21.10;;
23288;SDS011;11813;50.834;4.280;2023-01-20T05:16:59;45.90;;;21.97;;
23288;SDS011;11813;50.834;4.280;2023-01-20T05:19:24;49.53;;;21.17;;
23288;SDS011;11813;50.834;4.280;2023-01-20T05:21:50;47.07;;;20.47;;
23288;SDS011;11813;50.834;4.280;2023-01-20T05:24:16;50.97;;;20.80;;
23288;SDS011;11813;50.834;4.280;2023-01-20T05:26:41;46.77;;;19.87;;
23288;SDS011;11813;50.834;4.280;2023-01-20T05:29:07;51.50;;;21.20;;
23288;SDS011;11813;50.834;4.280;2023-01-20T05:31:33;50.97;;;22.07;;
23288;SDS011;11813;50.834;4.280;2023-01-20T05:33:59;49.37;;;21.43;;
23288;SDS011;11813;50.834;4.280;2023-01-20T05:36:24;44.30;;;18.20;;
23288;SDS011;11813;50.834;4.280;2023-01-20T05:38:52;56.37;;;22.10;;
23288;SDS011;11813;50.834;4.280;2023-01-20T05:41:18;51.13;;;21.93;;
23288;SDS011;11813;50.834;4.280;2023-01-20T05:43:43;46.17;;;21.20;;
23288;SDS011;11813;50.834;4.280;2023-01-20T05:46:09;58.67;;;23.20;;
23288;SDS011;11813;50.834;4.280;2023-01-20T05:48:35;52.30;;;21.47;;
23288;SDS011;11813;50.834;4.280;2023-01-20T05:51:00;52.80;;;21.07;;
23288;SDS011;11813;50.834;4.280;2023-01-20T05:53:26;42.23;;;19.47;;
23288;SDS011;11813;50.834;4.280;2023-01-20T05:55:57;42.47;;;20.37;;
23288;SDS011;11813;50.834;4.280;2023-01-20T05:58:27;42.20;;;20.30;;
23288;SDS011;11813;50.834;4.280;2023-01-20T06:00:53;46.33;;;21.07;;
23288;SDS011;11813;50.834;4.280;2023-01-20T06:03:19;40.37;;;17.47;;
23288;SDS011;11813;50.834;4.280;2023-01-20T06:05:44;49.63;;;20.47;;
23288;SDS011;11813;50.834;4.280;2023-01-20T06:08:10;47.47;;;20.00;;
23288;SDS011;11813;50.834;4.280;2023-01-20T06:10:35;43.37;;;18.83;;
23288;SDS011;11813;50.834;4.280;2023-01-20T06:13:01;48.67;;;19.77;;
23288;SDS011;11813;50.834;4.280;2023-01-20T06:15:26;42.27;;;19.63;;
23288;SDS011;11813;50.834;4.280;2023-01-20T06:17:53;40.77;;;18.87;;
23288;SDS011;11813;50.834;4.280;2023-01-20T06:20:19;46.30;;;19.73;;
23288;SDS011;11813;50.834;4.280;2023-01-20T06:22:45;43.50;;;20.50;;
23288;SDS011;11813;50.834;4.280;2023-01-20T06:25:11;41.20;;;19.47;;
23288;SDS011;11813;50.834;4.280;2023-01-20T06:27:36;40.97;;;19.20;;
23288;SDS011;11813;50.834;4.280;2023-01-20T06:30:05;39.00;;;18.27;;
23288;SDS011;11813;50.834;4.280;2023-01-20T06:32:31;42.50;;;18.83;;
23288;SDS011;11813;50.834;4.280;2023-01-20T06:34:57;42.53;;;19.93;;
23288;SDS011;11813;50.834;4.280;2023-01-20T06:37:22;46.00;;;20.87;;
23288;SDS011;11813;50.834;4.280;2023-01-20T06:39:48;41.50;;;20.03;;
23288;SDS011;11813;50.834;4.280;2023-01-20T06:42:13;45.07;;;21.50;;
23288;SDS011;11813;50.834;4.280;2023-01-20T06:44:39;50.40;;;21.80;;
23288;SDS011;11813;50.834;4.280;2023-01-20T06:47:04;50.43;;;22.27;;
23288;SDS011;11813;50.834;4.280;2023-01-20T06:49:30;43.80;;;20.17;;
23288;SDS011;11813;50.834;4.280;2023-01-20T06:51:57;49.10;;;20.80;;
23288;SDS011;11813;50.834;4.280;2023-01-20T06:54:23;49.17;;;21.53;;
23288;SDS011;11813;50.834;4.280;2023-01-20T06:56:49;45.97;;;19.77;;
23288;SDS011;11813;50.834;4.280;2023-01-20T06:59:14;50.80;;;22.27;;
23288;SDS011;11813;50.834;4.280;2023-01-20T07:01:40;50.23;;;21.43;;
23288;SDS011;11813;50.834;4.280;2023-01-20T07:04:05;50.90;;;21.63;;
23288;SDS011;11813;50.834;4.280;2023-01-20T07:06:36;40.83;;;20.43;;
23288;SDS011;11813;50.834;4.280;2023-01-20T07:09:03;47.23;;;21.37;;
23288;SDS011;11813;50.834;4.280;2023-01-20T07:11:30;49.07;;;20.40;;
23288;SDS011;11813;50.834;4.280;2023-01-20T07:13:56;48.50;;;21.17;;
23288;SDS011;11813;50.834;4.280;2023-01-20T07:16:22;47.83;;;21.97;;
23288;SDS011;11813;50.834;4.280;2023-01-20T07:18:49;45.70;;;20.13;;
23288;SDS011;11813;50.834;4.280;2023-01-20T07:21:16;47.83;;;20.87;;
23288;SDS011;11813;50.834;4.280;2023-01-20T07:23:41;53.97;;;21.73;;
23288;SDS011;11813;50.834;4.280;2023-01-20T07:26:08;43.77;;;19.27;;
23288;SDS011;11813;50.834;4.280;2023-01-20T07:28:35;48.77;;;21.63;;
23288;SDS011;11813;50.834;4.280;2023-01-20T07:31:05;47.10;;;20.07;;
23288;SDS011;11813;50.834;4.280;2023-01-20T07:33:32;45.50;;;19.43;;
23288;SDS011;11813;50.834;4.280;2023-01-20T07:35:58;48.93;;;19.73;;
23288;SDS011;11813;50.834;4.280;2023-01-20T07:38:24;42.60;;;19.60;;
23288;SDS011;11813;50.834;4.280;2023-01-20T07:40:49;42.00;;;20.60;;
23288;SDS011;11813;50.834;4.280;2023-01-20T07:43:15;40.33;;;19.70;;
23288;SDS011;11813;50.834;4.280;2023-01-20T07:45:41;42.63;;;18.10;;
23288;SDS011;11813;50.834;4.280;2023-01-20T07:48:06;42.53;;;19.50;;
23288;SDS011;11813;50.834;4.280;2023-01-20T07:50:35;41.63;;;19.23;;
23288;SDS011;11813;50.834;4.280;2023-01-20T07:53:01;40.83;;;18.93;;
23288;SDS011;11813;50.834;4.280;2023-01-20T07:55:27;42.80;;;19.20;;
23288;SDS011;11813;50.834;4.280;2023-01-20T07:57:53;44.20;;;18.80;;
23288;SDS011;11813;50.834;4.280;2023-01-20T08:00:19;39.63;;;18.80;;
23288;SDS011;11813;50.834;4.280;2023-01-20T08:02:44;36.30;;;18.07;;
23288;SDS011;11813;50.834;4.280;2023-01-20T08:05:10;36.93;;;18.37;;
23288;SDS011;11813;50.834;4.280;2023-01-20T08:07:36;35.63;;;17.80;;
23288;SDS011;11813;50.834;4.280;2023-01-20T08:10:01;38.77;;;17.47;;
23288;SDS011;11813;50.834;4.280;2023-01-20T08:12:28;40.97;;;19.37;;
23288;SDS011;11813;50.834;4.280;2023-01-20T08:14:54;37.17;;;18.03;;
23288;SDS011;11813;50.834;4.280;2023-01-20T08:17:20;37.13;;;17.83;;
23288;SDS011;11813;50.834;4.280;2023-01-20T08:19:45;37.63;;;18.00;;
23288;SDS011;11813;50.834;4.280;2023-01-20T08:22:11;35.37;;;18.00;;
23288;SDS011;11813;50.834;4.280;2023-01-20T08:24:37;34.47;;;17.90;;
23288;SDS011;11813;50.834;4.280;2023-01-20T08:27:02;34.70;;;17.23;;
23288;SDS011;11813;50.834;4.280;2023-01-20T08:29:28;35.40;;;16.77;;
23288;SDS011;11813;50.834;4.280;2023-01-20T08:31:57;33.57;;;17.83;;
23288;SDS011;11813;50.834;4.280;2023-01-20T08:34:25;35.23;;;17.50;;
23288;SDS011;11813;50.834;4.280;2023-01-20T08:36:52;43.10;;;18.50;;
23288;SDS011;11813;50.834;4.280;2023-01-20T08:39:20;35.70;;;17.13;;
23288;SDS011;11813;50.834;4.280;2023-01-20T08:41:46;33.13;;;16.80;;
23288;SDS011;11813;50.834;4.280;2023-01-20T08:44:13;33.83;;;16.60;;
23288;SDS011;11813;50.834;4.280;2023-01-20T08:46:40;33.80;;;17.17;;
23288;SDS011;11813;50.834;4.280;2023-01-20T08:49:06;30.17;;;15.40;;
23288;SDS011;11813;50.834;4.280;2023-01-20T08:51:33;35.80;;;16.50;;
23288;SDS011;11813;50.834;4.280;2023-01-20T08:53:59;37.97;;;16.87;;
23288;SDS011;11813;50.834;4.280;2023-01-20T08:56:25;36.10;;;16.97;;
23288;SDS011;11813;50.834;4.280;2023-01-20T08:58:52;33.97;;;16.67;;
23288;SDS011;11813;50.834;4.280;2023-01-20T09:01:25;41.23;;;17.17;;
23288;SDS011;11813;50.834;4.280;2023-01-20T09:03:54;36.07;;;17.17;;
23288;SDS011;11813;50.834;4.280;2023-01-20T09:06:20;28.30;;;15.40;;
23288;SDS011;11813;50.834;4.280;2023-01-20T09:08:49;34.00;;;18.20;;
23288;SDS011;11813;50.834;4.280;2023-01-20T09:11:17;34.00;;;17.23;;
23288;SDS011;11813;50.834;4.280;2023-01-20T09:13:45;29.40;;;16.40;;
23288;SDS011;11813;50.834;4.280;2023-01-20T09:16:11;33.73;;;16.17;;
23288;SDS011;11813;50.834;4.280;2023-01-20T09:18:38;34.23;;;16.30;;
23288;SDS011;11813;50.834;4.280;2023-01-20T09:21:04;36.03;;;16.00;;
23288;SDS011;11813;50.834;4.280;2023-01-20T09:23:33;37.43;;;15.80;;
23288;SDS011;11813;50.834;4.280;2023-01-20T09:25:59;35.47;;;16.63;;
23288;SDS011;11813;50.834;4.280;2023-01-20T09:28:26;27.23;;;15.13;;
23288;SDS011;11813;50.834;4.280;2023-01-20T09:31:02;30.13;;;15.50;;
23288;SDS011;11813;50.834;4.280;2023-01-20T09:33:30;28.97;;;15.63;;
23288;SDS011;11813;50.834;4.280;2023-01-20T09:35:57;34.53;;;16.27;;
23288;SDS011;11813;50.834;4.280;2023-01-20T09:38:23;29.87;;;15.37;;
23288;SDS011;11813;50.834;4.280;2023-01-20T09:41:28;26.57;;;15.10;;
23288;SDS011;11813;50.834;4.280;2023-01-20T09:47:21;34.93;;;14.00;;
23288;SDS011;11813;50.834;4.280;2023-01-20T09:50:10;28.07;;;14.70;;
23288;SDS011;11813;50.834;4.280;2023-01-20T09:53:01;30.37;;;12.60;;
23288;SDS011;11813;50.834;4.280;2023-01-20T09:55:49;30.63;;;14.53;;
23288;SDS011;11813;50.834;4.280;2023-01-20T10:00:50;27.37;;;14.90;;
23288;SDS011;11813;50.834;4.280;2023-01-20T10:03:26;26.23;;;14.50;;
23288;SDS011;11813;50.834;4.280;2023-01-20T10:06:01;26.47;;;12.97;;
23288;SDS011;11813;50.834;4.280;2023-01-20T10:08:33;25.77;;;13.57;;
23288;SDS011;11813;50.834;4.280;2023-01-20T10:11:11;27.60;;;14.03;;
23288;SDS011;11813;50.834;4.280;2023-01-20T10:13:46;28.27;;;14.27;;
23288;SDS011;11813;50.834;4.280;2023-01-20T10:16:27;28.20;;;12.87;;
23288;SDS011;11813;50.834;4.280;2023-01-20T10:19:03;33.90;;;13.87;;
23288;SDS011;11813;50.834;4.280;2023-01-20T10:21:39;23.33;;;12.93;;
23288;SDS011;11813;50.834;4.280;2023-01-20T10:24:12;21.33;;;11.67;;
23288;SDS011;11813;50.834;4.280;2023-01-20T10:26:45;27.90;;;13.10;;
23288;SDS011;11813;50.834;4.280;2023-01-20T10:29:37;27.50;;;13.73;;
23288;SDS011;11813;50.834;4.280;2023-01-20T10:34:47;25.73;;;12.87;;
23288;SDS011;11813;50.834;4.280;2023-01-20T10:37:16;27.33;;;12.07;;
23288;SDS011;11813;50.834;4.280;2023-01-20T10:39:47;22.27;;;12.77;;
23288;SDS011;11813;50.834;4.280;2023-01-20T10:42:15;27.43;;;12.43;;
23288;SDS011;11813;50.834;4.280;2023-01-20T10:44:41;25.63;;;13.83;;
23288;SDS011;11813;50.834;4.280;2023-01-20T10:55:42;25.17;;;12.87;;
23288;SDS011;11813;50.834;4.280;2023-01-20T10:58:20;20.00;;;11.40;;
23288;SDS011;11813;50.834;4.280;2023-01-20T11:00:59;19.93;;;11.10;;
23288;SDS011;11813;50.834;4.280;2023-01-20T11:03:30;25.23;;;11.93;;
23288;SDS011;11813;50.834;4.280;2023-01-20T11:06:00;25.30;;;11.33;;
23288;SDS011;11813;50.834;4.280;2023-01-20T11:08:27;25.67;;;11.30;;
23288;SDS011;11813;50.834;4.280;2023-01-20T11:11:17;21.60;;;11.70;;
23288;SDS011;11813;50.834;4.280;2023-01-20T11:13:41;28.50;;;10.90;;
23288;SDS011;11813;50.834;4.280;2023-01-20T11:16:11;20.57;;;11.80;;
23288;SDS011;11813;50.834;4.280;2023-01-20T11:18:43;25.73;;;10.87;;
23288;SDS011;11813;50.834;4.280;2023-01-20T11:21:21;21.47;;;10.87;;
23288;SDS011;11813;50.834;4.280;2023-01-20T11:23:51;25.87;;;10.87;;
23288;SDS011;11813;50.834;4.280;2023-01-20T11:26:28;20.60;;;9.97;;
23288;SDS011;11813;50.834;4.280;2023-01-20T11:29:00;21.13;;;10.17;;
23288;SDS011;11813;50.834;4.280;2023-01-20T11:34:22;21.67;;;10.93;;
23288;SDS011;11813;50.834;4.280;2023-01-20T11:36:50;15.37;;;9.33;;
23288;SDS011;11813;50.834;4.280;2023-01-20T11:39:29;17.77;;;10.00;;
23288;SDS011;11813;50.834;4.280;2023-01-20T11:44:59;17.83;;;10.10;;
23288;SDS011;11813;50.834;4.280;2023-01-20T11:47:33;17.90;;;9.93;;
23288;SDS011;11813;50.834;4.280;2023-01-20T11:52:41;22.30;;;9.87;;
23288;SDS011;11813;50.834;4.280;2023-01-20T11:57:47;25.43;;;10.07;;
23288;SDS011;11813;50.834;4.280;2023-01-20T12:05:52;17.00;;;9.70;;
23288;SDS011;11813;50.834;4.280;2023-01-20T12:08:28;16.70;;;9.43;;
23288;SDS011;11813;50.834;4.280;2023-01-20T12:11:03;26.00;;;9.47;;
23288;SDS011;11813;50.834;4.280;2023-01-20T12:13:38;23.70;;;10.27;;
23288;SDS011;11813;50.834;4.280;2023-01-20T12:16:31;23.03;;;9.87;;
23288;SDS011;11813;50.834;4.280;2023-01-20T12:18:58;15.60;;;8.30;;
23288;SDS011;11813;50.834;4.280;2023-01-20T12:21:35;20.53;;;8.97;;
23288;SDS011;11813;50.834;4.280;2023-01-20T12:24:11;16.53;;;8.03;;
23288;SDS011;11813;50.834;4.280;2023-01-20T12:26:52;18.13;;;8.00;;
23288;SDS011;11813;50.834;4.280;2023-01-20T12:29:19;14.87;;;7.60;;
23288;SDS011;11813;50.834;4.280;2023-01-20T12:31:53;16.07;;;8.00;;
23288;SDS011;11813;50.834;4.280;2023-01-20T12:34:25;23.00;;;8.37;;
23288;SDS011;11813;50.834;4.280;2023-01-20T12:37:12;13.37;;;7.13;;
23288;SDS011;11813;50.834;4.280;2023-01-20T12:48:08;14.47;;;7.23;;
23288;SDS011;11813;50.834;4.280;2023-01-20T13:01:39;13.90;;;7.07;;
23288;SDS011;11813;50.834;4.280;2023-01-20T13:07:38;13.60;;;7.03;;
23288;SDS011;11813;50.834;4.280;2023-01-20T13:10:27;12.30;;;6.93;;
23288;SDS011;11813;50.834;4.280;2023-01-20T13:15:59;12.17;;;7.07;;
23288;SDS011;11813;50.834;4.280;2023-01-20T13:18:29;19.03;;;7.70;;
23288;SDS011;11813;50.834;4.280;2023-01-20T13:20:58;15.37;;;7.73;;
23288;SDS011;11813;50.834;4.280;2023-01-20T13:23:25;14.37;;;7.07;;
23288;SDS011;11813;50.834;4.280;2023-01-20T13:25:52;16.23;;;6.57;;
23288;SDS011;11813;50.834;4.280;2023-01-20T13:28:20;14.60;;;7.07;;
23288;SDS011;11813;50.834;4.280;2023-01-20T13:30:48;16.03;;;6.77;;
23288;SDS011;11813;50.834;4.280;2023-01-20T13:36:15;9.30;;;5.97;;
23288;SDS011;11813;50.834;4.280;2023-01-20T13:38:42;14.07;;;7.03;;
23288;SDS011;11813;50.834;4.280;2023-01-20T13:41:08;14.90;;;6.37;;
23288;SDS011;11813;50.834;4.280;2023-01-20T13:48:32;12.50;;;5.97;;
23288;SDS011;11813;50.834;4.280;2023-01-20T13:53:41;13.90;;;6.23;;
23288;SDS011;11813;50.834;4.280;2023-01-20T13:58:58;11.03;;;6.07;;
23288;SDS011;11813;50.834;4.280;2023-01-20T14:01:25;16.43;;;6.80;;
23288;SDS011;11813;50.834;4.280;2023-01-20T14:04:02;17.73;;;5.87;;
23288;SDS011;11813;50.834;4.280;2023-01-20T14:06:29;13.53;;;6.10;;
23288;SDS011;11813;50.834;4.280;2023-01-20T14:08:58;12.70;;;6.00;;
23288;SDS011;11813;50.834;4.280;2023-01-20T14:11:26;10.30;;;5.57;;
23288;SDS011;11813;50.834;4.280;2023-01-20T14:14:02;13.97;;;5.30;;
23288;SDS011;11813;50.834;4.280;2023-01-20T14:19:01;10.53;;;5.00;;
23288;SDS011;11813;50.834;4.280;2023-01-20T14:21:40;12.13;;;5.17;;
23288;SDS011;11813;50.834;4.280;2023-01-20T14:24:23;12.17;;;6.83;;
23288;SDS011;11813;50.834;4.280;2023-01-20T14:29:41;19.67;;;5.83;;
23288;SDS011;11813;50.834;4.280;2023-01-20T14:32:13;14.83;;;4.90;;
23288;SDS011;11813;50.834;4.280;2023-01-20T14:34:42;11.87;;;5.10;;
23288;SDS011;11813;50.834;4.280;2023-01-20T14:37:41;16.30;;;4.90;;
23288;SDS011;11813;50.834;4.280;2023-01-20T14:42:35;6.77;;;3.10;;
23288;SDS011;11813;50.834;4.280;2023-01-20T14:45:15;7.47;;;2.63;;
23288;SDS011;11813;50.834;4.280;2023-01-20T14:47:45;7.30;;;2.77;;
23288;SDS011;11813;50.834;4.280;2023-01-20T14:50:11;9.87;;;3.47;;
23288;SDS011;11813;50.834;4.280;2023-01-20T14:52:38;7.83;;;3.00;;
23288;SDS011;11813;50.834;4.280;2023-01-20T14:55:04;4.83;;;2.60;;
23288;SDS011;11813;50.834;4.280;2023-01-20T14:57:33;6.07;;;2.60;;
23288;SDS011;11813;50.834;4.280;2023-01-20T15:02:41;5.53;;;2.57;;
23288;SDS011;11813;50.834;4.280;2023-01-20T15:05:29;7.07;;;2.70;;
23288;SDS011;11813;50.834;4.280;2023-01-20T15:08:17;6.63;;;3.20;;
23288;SDS011;11813;50.834;4.280;2023-01-20T15:11:10;8.10;;;3.40;;
23288;SDS011;11813;50.834;4.280;2023-01-20T15:13:34;5.80;;;3.27;;
23288;SDS011;11813;50.834;4.280;2023-01-20T15:16:05;8.43;;;4.00;;
23288;SDS011;11813;50.834;4.280;2023-01-20T15:18:31;9.33;;;5.00;;
23288;SDS011;11813;50.834;4.280;2023-01-20T15:20:57;9.63;;;5.63;;
23288;SDS011;11813;50.834;4.280;2023-01-20T15:23:55;15.13;;;5.70;;
23288;SDS011;11813;50.834;4.280;2023-01-20T15:26:36;10.97;;;4.63;;
23288;SDS011;11813;50.834;4.280;2023-01-20T15:29:16;8.47;;;4.17;;
23288;SDS011;11813;50.834;4.280;2023-01-20T15:31:51;10.70;;;3.97;;
23288;SDS011;11813;50.834;4.280;2023-01-20T15:34:18;11.83;;;3.77;;
23288;SDS011;11813;50.834;4.280;2023-01-20T15:36:45;10.27;;;4.50;;
23288;SDS011;11813;50.834;4.280;2023-01-20T15:39:18;9.90;;;4.80;;
23288;SDS011;11813;50.834;4.280;2023-01-20T15:41:46;12.80;;;5.43;;
23288;SDS011;11813;50.834;4.280;2023-01-20T15:44:12;12.70;;;4.93;;
23288;SDS011;11813;50.834;4.280;2023-01-20T15:46:39;18.27;;;5.20;;
23288;SDS011;11813;50.834;4.280;2023-01-20T15:49:08;14.10;;;5.10;;
23288;SDS011;11813;50.834;4.280;2023-01-20T15:51:35;16.97;;;4.67;;
23288;SDS011;11813;50.834;4.280;2023-01-20T15:54:00;11.57;;;5.50;;
23288;SDS011;11813;50.834;4.280;2023-01-20T15:56:27;12.87;;;5.40;;
23288;SDS011;11813;50.834;4.280;2023-01-20T15:58:54;11.17;;;4.80;;
23288;SDS011;11813;50.834;4.280;2023-01-20T16:01:21;13.90;;;4.77;;
23288;SDS011;11813;50.834;4.280;2023-01-20T16:03:49;14.20;;;5.20;;
23288;SDS011;11813;50.834;4.280;2023-01-20T16:06:19;9.90;;;4.27;;
23288;SDS011;11813;50.834;4.280;2023-01-20T16:08:47;10.37;;;4.67;;
23288;SDS011;11813;50.834;4.280;2023-01-20T16:11:14;18.70;;;5.33;;
23288;SDS011;11813;50.834;4.280;2023-01-20T16:13:40;13.20;;;4.43;;
23288;SDS011;11813;50.834;4.280;2023-01-20T16:16:14;17.23;;;5.07;;
23288;SDS011;11813;50.834;4.280;2023-01-20T16:18:41;9.43;;;4.13;;
23288;SDS011;11813;50.834;4.280;2023-01-20T16:21:11;13.73;;;4.80;;
23288;SDS011;11813;50.834;4.280;2023-01-20T16:23:38;13.00;;;4.60;;
23288;SDS011;11813;50.834;4.280;2023-01-20T16:26:15;11.87;;;4.13;;
23288;SDS011;11813;50.834;4.280;2023-01-20T16:28:50;9.80;;;4.30;;
23288;SDS011;11813;50.834;4.280;2023-01-20T16:31:17;12.37;;;5.13;;